OWD weather

Norwood Memorial Airport
Norwood, Massachusetts, United States

Public forecast

Using degrees Fahrenheit for public forecast. Weather courtesy of forecast.io.

METAR (pilot weather report)

Retrieved 2019/09/22 09:53 UTC (1 hour ago):

KOWD 220953Z AUTO 00000KT 1/4SM FG VV001 11/09 A3015 RMK AO2 SLP210 T01110089

TAF (pilot weather forecast)

Closest forecast is General Edward Lawrence Logan International Airport, 12.8 nm (23.7 km) NE. Retrieved 2019/09/22 06:38 UTC (4 hours ago):

TAF KBOS 220530Z 2206/2312 22008KT P6SM SKC FM221700 22010G18KT P6SM FEW200 FM230800 22010G18KT P6SM SCT100